createdAt,value
2023-03-12T06:46:54.314Z,6.13
2023-03-12T06:49:43.483Z,6.15
2023-03-12T06:55:15.904Z,6.19
2023-03-12T06:57:45.215Z,6.22
2023-03-12T07:10:53.439Z,6.33
2023-03-12T07:16:41.287Z,6.35
2023-03-12T07:19:15.127Z,6.37
2023-03-12T07:21:48.739Z,6.31
2023-03-12T07:24:16.831Z,6.41
2023-03-12T07:26:53.236Z,6.43
2023-03-12T07:37:32.716Z,6.51
2023-03-12T07:40:10.099Z,6.51
2023-03-12T07:42:38.307Z,6.49
2023-03-12T07:45:08.220Z,6.51
2023-03-12T07:47:35.592Z,6.56
2023-03-12T07:50:17.122Z,6.63
2023-03-12T07:52:48.041Z,6.70
2023-03-12T07:55:18.349Z,6.75
2023-03-12T07:57:47.261Z,6.79
2023-03-12T08:03:32.186Z,6.84
2023-03-12T08:06:12.776Z,6.87
2023-03-12T08:08:45.519Z,6.90
2023-03-12T08:13:58.632Z,6.92
2023-03-12T08:16:38.193Z,6.95
2023-03-12T08:19:08.698Z,6.92
2023-03-12T08:33:47.010Z,6.96
2023-03-12T08:36:16.783Z,6.99
2023-03-12T08:38:54.467Z,7.04
2023-03-12T08:41:23.586Z,7.09
2023-03-12T08:43:56.209Z,7.13
2023-03-12T09:23:37.824Z,7.47
2023-03-12T09:26:04.988Z,7.50
2023-03-12T09:28:32.282Z,7.53
2023-03-12T09:31:02.242Z,7.57
2023-03-12T09:33:29.451Z,7.59
2023-03-12T09:35:58.893Z,7.58
2023-03-12T09:38:26.389Z,7.56
2023-03-12T09:40:53.543Z,7.56
2023-03-12T09:43:32.583Z,7.56
2023-03-12T09:46:07.791Z,7.55
2023-03-12T09:48:36.194Z,7.56
2023-03-12T09:51:08.342Z,7.55
2023-03-12T09:53:52.279Z,7.57
2023-03-12T09:56:21.516Z,7.63
2023-03-12T09:58:49.432Z,7.74
2023-03-12T10:01:20.392Z,7.87
2023-03-12T10:03:55.208Z,7.92
2023-03-12T10:06:25.498Z,7.92
2023-03-12T10:08:52.472Z,7.89
2023-03-12T10:11:39.324Z,7.86
2023-03-12T10:14:33.020Z,7.81
2023-03-12T10:17:04.334Z,7.80
2023-03-12T10:19:31.791Z,7.79
2023-03-12T10:22:34.651Z,7.82
2023-03-12T10:25:06.760Z,7.83
2023-03-12T10:27:38.182Z,7.83
2023-03-12T10:30:14.394Z,7.89
2023-03-12T10:32:42.595Z,7.96
2023-03-12T10:35:15.829Z,7.97
2023-03-12T10:38:18.948Z,7.99
2023-03-12T10:40:46.194Z,8.01
2023-03-12T10:43:13.395Z,8.02
2023-03-12T10:45:59.104Z,8.03
2023-03-12T10:48:29.530Z,8.07
2023-03-12T10:51:07.856Z,8.15
2023-03-12T10:53:45.036Z,8.24
2023-03-12T10:56:15.158Z,8.29
2023-03-12T10:58:47.367Z,8.28
2023-03-12T11:04:16.957Z,8.25
2023-03-12T11:07:03.382Z,8.22
2023-03-12T11:09:41.377Z,8.15
2023-03-12T11:39:20.250Z,5.56
2023-03-12T11:45:33.495Z,4.51
2023-03-12T11:51:44.466Z,3.66
2023-03-12T11:54:40.851Z,3.41
2023-03-12T12:00:22.110Z,3.00
2023-03-12T12:22:06.134Z,1.88
2023-03-12T12:27:27.904Z,1.73
2023-03-12T12:30:17.673Z,1.63
2023-03-12T12:33:06.998Z,1.51
2023-03-12T12:35:36.153Z,1.36
2023-03-12T12:41:12.015Z,1.16
2023-03-12T12:43:40.487Z,1.11
2023-03-12T12:46:29.667Z,1.06
2023-03-12T12:48:59.859Z,1.00
2023-03-12T12:51:31.670Z,0.98
2023-03-12T12:54:08.017Z,0.92
2023-03-12T12:56:43.252Z,0.88
2023-03-12T12:59:27.453Z,0.82
2023-03-12T13:01:56.348Z,0.72
2023-03-12T13:04:39.052Z,0.63
2023-03-12T13:07:20.757Z,0.52
2023-03-12T13:09:50.680Z,0.44
2023-03-12T13:12:25.457Z,0.37
2023-03-12T13:14:59.657Z,0.31
2023-03-12T13:17:45.442Z,0.23
2023-03-12T13:20:24.514Z,0.12
2023-03-12T13:23:10.172Z,0.00
2023-03-12T13:25:37.079Z,-0.15
2023-03-12T13:28:44.497Z,-0.23
2023-03-12T13:31:19.105Z,-0.38
2023-03-12T13:33:56.404Z,-0.47
2023-03-12T13:36:28.791Z,-0.57
2023-03-12T13:38:58.062Z,-0.64
2023-03-12T13:41:33.215Z,-0.69
2023-03-12T16:04:04.886Z,-3.20
2023-03-12T16:06:32.003Z,-3.22
2023-03-12T16:54:19.428Z,-3.24
2023-03-12T16:56:52.323Z,-3.24
2023-03-12T16:59:24.708Z,-3.24
2023-03-12T17:01:51.975Z,-3.22
2023-03-12T17:04:19.282Z,-3.21
2023-03-12T17:06:46.408Z,-3.21
2023-03-12T17:09:15.180Z,-3.19
2023-03-12T17:11:42.353Z,-3.20
2023-03-12T17:14:19.198Z,-3.21
2023-03-12T17:16:47.259Z,-3.23
2023-03-12T17:19:18.790Z,-3.25
2023-03-12T17:21:54.197Z,-3.22
2023-03-12T17:24:28.536Z,-3.23
2023-03-12T17:26:56.913Z,-3.21
2023-03-12T17:29:29.693Z,-3.19
2023-03-12T17:31:59.559Z,-3.18
2023-03-12T17:37:47.530Z,-3.17
2023-03-12T17:49:01.123Z,-3.18
2023-03-12T18:02:52.762Z,-3.05
2023-03-12T18:06:13.434Z,-3.06
2023-03-12T18:08:40.598Z,-3.03
2023-03-12T18:11:12.006Z,-3.01
2023-03-12T18:13:42.414Z,-3.01
2023-03-12T18:16:10.003Z,-3.01
2023-03-12T18:18:37.326Z,-3.01
